sensor_id;sensor_type;location;lat;lon;timestamp;P1;durP1;ratioP1;P2;durP2;ratioP2
3677;SDS011;1855;50.934;6.958;2022-11-20T00:00:15;15.20;;;13.70;;
3677;SDS011;1855;50.934;6.958;2022-11-20T00:02:42;15.07;;;13.68;;
3677;SDS011;1855;50.934;6.958;2022-11-20T00:05:09;14.98;;;13.68;;
3677;SDS011;1855;50.934;6.958;2022-11-20T00:07:36;13.80;;;12.50;;
3677;SDS011;1855;50.934;6.958;2022-11-20T00:10:03;14.32;;;12.93;;
3677;SDS011;1855;50.934;6.958;2022-11-20T00:12:31;14.57;;;13.23;;
3677;SDS011;1855;50.934;6.958;2022-11-20T00:14:58;14.10;;;12.80;;
3677;SDS011;1855;50.934;6.958;2022-11-20T00:17:25;14.57;;;13.10;;
3677;SDS011;1855;50.934;6.958;2022-11-20T00:19:51;14.80;;;13.43;;
3677;SDS011;1855;50.934;6.958;2022-11-20T00:22:18;14.82;;;13.43;;
3677;SDS011;1855;50.934;6.958;2022-11-20T00:24:45;13.00;;;11.80;;
3677;SDS011;1855;50.934;6.958;2022-11-20T00:27:12;14.35;;;13.05;;
3677;SDS011;1855;50.934;6.958;2022-11-20T00:29:40;13.75;;;12.45;;
3677;SDS011;1855;50.934;6.958;2022-11-20T00:32:06;14.75;;;13.20;;
3677;SDS011;1855;50.934;6.958;2022-11-20T00:34:33;14.70;;;13.20;;
3677;SDS011;1855;50.934;6.958;2022-11-20T00:37:00;14.73;;;13.32;;
3677;SDS011;1855;50.934;6.958;2022-11-20T00:39:27;14.53;;;13.20;;
3677;SDS011;1855;50.934;6.958;2022-11-20T00:41:53;13.88;;;12.60;;
3677;SDS011;1855;50.934;6.958;2022-11-20T00:44:20;14.05;;;12.65;;
3677;SDS011;1855;50.934;6.958;2022-11-20T00:46:48;14.85;;;13.30;;
3677;SDS011;1855;50.934;6.958;2022-11-20T00:49:15;14.80;;;13.50;;
3677;SDS011;1855;50.934;6.958;2022-11-20T00:51:41;14.32;;;12.93;;
3677;SDS011;1855;50.934;6.958;2022-11-20T00:54:08;14.07;;;12.70;;
3677;SDS011;1855;50.934;6.958;2022-11-20T00:56:35;14.70;;;13.30;;
3677;SDS011;1855;50.934;6.958;2022-11-20T00:59:02;13.93;;;12.63;;
3677;SDS011;1855;50.934;6.958;2022-11-20T01:01:29;13.80;;;12.50;;
3677;SDS011;1855;50.934;6.958;2022-11-20T01:03:58;14.68;;;13.27;;
3677;SDS011;1855;50.934;6.958;2022-11-20T01:06:26;14.75;;;13.35;;
3677;SDS011;1855;50.934;6.958;2022-11-20T01:08:55;13.75;;;12.35;;
3677;SDS011;1855;50.934;6.958;2022-11-20T01:11:24;13.77;;;12.48;;
3677;SDS011;1855;50.934;6.958;2022-11-20T01:13:53;13.65;;;12.38;;
3677;SDS011;1855;50.934;6.958;2022-11-20T01:16:21;13.88;;;12.57;;
3677;SDS011;1855;50.934;6.958;2022-11-20T01:18:51;13.88;;;12.57;;
3677;SDS011;1855;50.934;6.958;2022-11-20T01:21:24;13.67;;;12.40;;
3677;SDS011;1855;50.934;6.958;2022-11-20T01:23:52;13.85;;;12.55;;
3677;SDS011;1855;50.934;6.958;2022-11-20T01:26:20;13.68;;;12.48;;
3677;SDS011;1855;50.934;6.958;2022-11-20T01:28:48;13.25;;;11.95;;
3677;SDS011;1855;50.934;6.958;2022-11-20T01:31:16;13.95;;;12.75;;
3677;SDS011;1855;50.934;6.958;2022-11-20T01:33:45;14.57;;;13.18;;
3677;SDS011;1855;50.934;6.958;2022-11-20T01:36:13;14.00;;;12.70;;
3677;SDS011;1855;50.934;6.958;2022-11-20T01:38:42;14.50;;;13.20;;
3677;SDS011;1855;50.934;6.958;2022-11-20T01:41:10;14.53;;;13.23;;
3677;SDS011;1855;50.934;6.958;2022-11-20T01:43:58;14.20;;;12.90;;
3677;SDS011;1855;50.934;6.958;2022-11-20T01:46:25;13.38;;;12.13;;
3677;SDS011;1855;50.934;6.958;2022-11-20T01:48:53;14.70;;;13.40;;
3677;SDS011;1855;50.934;6.958;2022-11-20T01:51:25;14.30;;;12.90;;
3677;SDS011;1855;50.934;6.958;2022-11-20T01:53:56;13.80;;;12.50;;
3677;SDS011;1855;50.934;6.958;2022-11-20T01:56:26;14.25;;;12.95;;
3677;SDS011;1855;50.934;6.958;2022-11-20T01:58:58;14.07;;;12.88;;
3677;SDS011;1855;50.934;6.958;2022-11-20T02:01:27;14.07;;;12.77;;
3677;SDS011;1855;50.934;6.958;2022-11-20T02:03:54;14.33;;;12.97;;
3677;SDS011;1855;50.934;6.958;2022-11-20T02:06:23;13.85;;;12.55;;
3677;SDS011;1855;50.934;6.958;2022-11-20T02:08:51;13.88;;;12.57;;
3677;SDS011;1855;50.934;6.958;2022-11-20T02:11:20;13.10;;;11.90;;
3677;SDS011;1855;50.934;6.958;2022-11-20T02:13:47;13.43;;;12.23;;
3677;SDS011;1855;50.934;6.958;2022-11-20T02:16:19;14.43;;;13.13;;
3677;SDS011;1855;50.934;6.958;2022-11-20T02:18:47;13.20;;;11.90;;
3677;SDS011;1855;50.934;6.958;2022-11-20T02:21:21;14.73;;;13.43;;
3677;SDS011;1855;50.934;6.958;2022-11-20T02:24:06;15.65;;;14.15;;
3677;SDS011;1855;50.934;6.958;2022-11-20T02:26:38;15.68;;;14.18;;
3677;SDS011;1855;50.934;6.958;2022-11-20T02:29:08;14.93;;;13.52;;
3677;SDS011;1855;50.934;6.958;2022-11-20T02:31:36;14.32;;;12.93;;
3677;SDS011;1855;50.934;6.958;2022-11-20T02:34:04;14.30;;;13.00;;
3677;SDS011;1855;50.934;6.958;2022-11-20T02:36:32;14.35;;;13.05;;
3677;SDS011;1855;50.934;6.958;2022-11-20T02:39:00;14.60;;;13.20;;
3677;SDS011;1855;50.934;6.958;2022-11-20T02:41:32;14.35;;;13.05;;
3677;SDS011;1855;50.934;6.958;2022-11-20T02:44:00;14.30;;;13.10;;
3677;SDS011;1855;50.934;6.958;2022-11-20T02:46:27;14.25;;;12.95;;
3677;SDS011;1855;50.934;6.958;2022-11-20T02:48:54;13.90;;;12.60;;
3677;SDS011;1855;50.934;6.958;2022-11-20T02:51:21;14.65;;;13.35;;
3677;SDS011;1855;50.934;6.958;2022-11-20T02:53:48;14.10;;;12.80;;
3677;SDS011;1855;50.934;6.958;2022-11-20T02:56:14;14.65;;;13.35;;
3677;SDS011;1855;50.934;6.958;2022-11-20T02:58:43;15.05;;;13.65;;
3677;SDS011;1855;50.934;6.958;2022-11-20T03:01:10;14.00;;;12.70;;
3677;SDS011;1855;50.934;6.958;2022-11-20T03:03:37;14.02;;;12.73;;
3677;SDS011;1855;50.934;6.958;2022-11-20T03:06:04;14.38;;;13.07;;
3677;SDS011;1855;50.934;6.958;2022-11-20T03:08:31;13.90;;;12.60;;
3677;SDS011;1855;50.934;6.958;2022-11-20T03:11:01;13.25;;;12.05;;
3677;SDS011;1855;50.934;6.958;2022-11-20T03:13:29;13.65;;;12.35;;
3677;SDS011;1855;50.934;6.958;2022-11-20T03:15:57;14.65;;;13.25;;
3677;SDS011;1855;50.934;6.958;2022-11-20T03:18:27;14.55;;;13.18;;
3677;SDS011;1855;50.934;6.958;2022-11-20T03:20:56;14.20;;;12.80;;
3677;SDS011;1855;50.934;6.958;2022-11-20T03:23:24;14.52;;;13.23;;
3677;SDS011;1855;50.934;6.958;2022-11-20T03:25:51;14.82;;;13.43;;
3677;SDS011;1855;50.934;6.958;2022-11-20T03:28:18;14.25;;;12.95;;
3677;SDS011;1855;50.934;6.958;2022-11-20T03:30:44;14.82;;;13.43;;
3677;SDS011;1855;50.934;6.958;2022-11-20T03:33:13;14.00;;;12.70;;
3677;SDS011;1855;50.934;6.958;2022-11-20T03:35:39;14.75;;;13.35;;
3677;SDS011;1855;50.934;6.958;2022-11-20T03:38:06;14.83;;;13.43;;
3677;SDS011;1855;50.934;6.958;2022-11-20T03:40:33;14.35;;;13.05;;
3677;SDS011;1855;50.934;6.958;2022-11-20T03:43:00;14.57;;;13.18;;
3677;SDS011;1855;50.934;6.958;2022-11-20T03:45:27;14.82;;;13.43;;
3677;SDS011;1855;50.934;6.958;2022-11-20T03:47:54;14.25;;;12.85;;
3677;SDS011;1855;50.934;6.958;2022-11-20T03:50:22;13.43;;;12.13;;
3677;SDS011;1855;50.934;6.958;2022-11-20T03:52:49;15.03;;;13.63;;
3677;SDS011;1855;50.934;6.958;2022-11-20T03:55:15;14.88;;;13.38;;
3677;SDS011;1855;50.934;6.958;2022-11-20T03:57:42;15.20;;;13.75;;
3677;SDS011;1855;50.934;6.958;2022-11-20T04:00:09;14.57;;;13.18;;
3677;SDS011;1855;50.934;6.958;2022-11-20T04:02:37;14.60;;;13.30;;
3677;SDS011;1855;50.934;6.958;2022-11-20T04:05:04;15.47;;;14.07;;
3677;SDS011;1855;50.934;6.958;2022-11-20T04:07:34;15.60;;;14.20;;
3677;SDS011;1855;50.934;6.958;2022-11-20T04:10:01;16.13;;;14.63;;
3677;SDS011;1855;50.934;6.958;2022-11-20T04:12:31;15.70;;;14.30;;
3677;SDS011;1855;50.934;6.958;2022-11-20T04:14:58;15.45;;;13.95;;
3677;SDS011;1855;50.934;6.958;2022-11-20T04:17:24;16.17;;;14.68;;
3677;SDS011;1855;50.934;6.958;2022-11-20T04:19:51;17.10;;;15.33;;
3677;SDS011;1855;50.934;6.958;2022-11-20T04:22:18;16.60;;;15.02;;
3677;SDS011;1855;50.934;6.958;2022-11-20T04:24:46;15.10;;;13.60;;
3677;SDS011;1855;50.934;6.958;2022-11-20T04:27:13;16.60;;;15.00;;
3677;SDS011;1855;50.934;6.958;2022-11-20T04:29:39;15.70;;;14.20;;
3677;SDS011;1855;50.934;6.958;2022-11-20T04:32:06;15.80;;;14.30;;
3677;SDS011;1855;50.934;6.958;2022-11-20T04:34:33;15.95;;;14.35;;
3677;SDS011;1855;50.934;6.958;2022-11-20T04:37:00;15.18;;;13.68;;
3677;SDS011;1855;50.934;6.958;2022-11-20T04:39:27;15.95;;;14.35;;
3677;SDS011;1855;50.934;6.958;2022-11-20T04:41:55;16.30;;;14.70;;
3677;SDS011;1855;50.934;6.958;2022-11-20T04:44:35;17.03;;;15.33;;
3677;SDS011;1855;50.934;6.958;2022-11-20T04:47:02;16.85;;;15.25;;
3677;SDS011;1855;50.934;6.958;2022-11-20T04:49:29;17.30;;;15.60;;
3677;SDS011;1855;50.934;6.958;2022-11-20T04:51:56;16.80;;;15.20;;
3677;SDS011;1855;50.934;6.958;2022-11-20T04:54:23;16.75;;;15.15;;
3677;SDS011;1855;50.934;6.958;2022-11-20T04:56:50;17.50;;;15.80;;
3677;SDS011;1855;50.934;6.958;2022-11-20T04:59:18;18.27;;;16.40;;
3677;SDS011;1855;50.934;6.958;2022-11-20T05:01:45;18.08;;;16.27;;
3677;SDS011;1855;50.934;6.958;2022-11-20T05:04:12;20.20;;;18.20;;
3677;SDS011;1855;50.934;6.958;2022-11-20T05:06:38;19.92;;;17.95;;
3677;SDS011;1855;50.934;6.958;2022-11-20T05:09:05;18.38;;;16.48;;
3677;SDS011;1855;50.934;6.958;2022-11-20T05:11:32;17.80;;;16.00;;
3677;SDS011;1855;50.934;6.958;2022-11-20T05:13:59;18.70;;;16.90;;
3677;SDS011;1855;50.934;6.958;2022-11-20T05:16:27;18.98;;;17.08;;
3677;SDS011;1855;50.934;6.958;2022-11-20T05:18:54;18.20;;;16.40;;
3677;SDS011;1855;50.934;6.958;2022-11-20T05:21:21;18.93;;;17.03;;
3677;SDS011;1855;50.934;6.958;2022-11-20T05:23:48;16.73;;;15.13;;
3677;SDS011;1855;50.934;6.958;2022-11-20T05:26:16;18.35;;;16.60;;
3677;SDS011;1855;50.934;6.958;2022-11-20T05:28:45;18.05;;;16.35;;
3677;SDS011;1855;50.934;6.958;2022-11-20T05:31:13;17.60;;;15.90;;
3677;SDS011;1855;50.934;6.958;2022-11-20T05:33:43;18.10;;;16.30;;
3677;SDS011;1855;50.934;6.958;2022-11-20T05:36:11;17.85;;;16.13;;
3677;SDS011;1855;50.934;6.958;2022-11-20T05:38:39;18.92;;;17.02;;
3677;SDS011;1855;50.934;6.958;2022-11-20T05:41:07;18.10;;;16.30;;
3677;SDS011;1855;50.934;6.958;2022-11-20T05:43:36;18.88;;;17.00;;
3677;SDS011;1855;50.934;6.958;2022-11-20T05:46:04;19.52;;;17.63;;
3677;SDS011;1855;50.934;6.958;2022-11-20T05:48:33;19.03;;;17.23;;
3677;SDS011;1855;50.934;6.958;2022-11-20T05:51:03;18.52;;;16.70;;
3677;SDS011;1855;50.934;6.958;2022-11-20T05:53:32;18.88;;;16.88;;
3677;SDS011;1855;50.934;6.958;2022-11-20T05:55:59;19.88;;;17.38;;
3677;SDS011;1855;50.934;6.958;2022-11-20T05:58:28;19.88;;;17.88;;
3677;SDS011;1855;50.934;6.958;2022-11-20T06:00:58;18.40;;;16.50;;
3677;SDS011;1855;50.934;6.958;2022-11-20T06:03:29;19.30;;;17.30;;
3677;SDS011;1855;50.934;6.958;2022-11-20T06:05:58;19.73;;;17.63;;
3677;SDS011;1855;50.934;6.958;2022-11-20T06:08:26;19.60;;;17.63;;
3677;SDS011;1855;50.934;6.958;2022-11-20T06:10:53;19.27;;;17.30;;
3677;SDS011;1855;50.934;6.958;2022-11-20T06:13:20;18.73;;;16.83;;
3677;SDS011;1855;50.934;6.958;2022-11-20T06:15:48;18.90;;;17.10;;
3677;SDS011;1855;50.934;6.958;2022-11-20T06:18:15;19.80;;;17.80;;
3677;SDS011;1855;50.934;6.958;2022-11-20T06:20:41;20.17;;;18.17;;
3677;SDS011;1855;50.934;6.958;2022-11-20T06:23:08;19.30;;;17.40;;
3677;SDS011;1855;50.934;6.958;2022-11-20T06:25:38;19.52;;;17.52;;
3677;SDS011;1855;50.934;6.958;2022-11-20T06:28:05;20.60;;;18.60;;
3677;SDS011;1855;50.934;6.958;2022-11-20T06:30:32;19.80;;;17.80;;
3677;SDS011;1855;50.934;6.958;2022-11-20T06:32:58;19.55;;;17.55;;
3677;SDS011;1855;50.934;6.958;2022-11-20T06:35:25;21.33;;;19.08;;
3677;SDS011;1855;50.934;6.958;2022-11-20T06:37:52;20.50;;;18.40;;
3677;SDS011;1855;50.934;6.958;2022-11-20T06:40:19;20.13;;;17.92;;
3677;SDS011;1855;50.934;6.958;2022-11-20T06:42:47;20.45;;;18.45;;
3677;SDS011;1855;50.934;6.958;2022-11-20T06:45:13;20.83;;;18.63;;
3677;SDS011;1855;50.934;6.958;2022-11-20T06:47:40;19.70;;;17.70;;
3677;SDS011;1855;50.934;6.958;2022-11-20T06:50:07;21.33;;;17.38;;
3677;SDS011;1855;50.934;6.958;2022-11-20T06:52:34;19.33;;;17.33;;
3677;SDS011;1855;50.934;6.958;2022-11-20T06:55:01;19.07;;;17.07;;
3677;SDS011;1855;50.934;6.958;2022-11-20T06:57:28;19.33;;;17.33;;
3677;SDS011;1855;50.934;6.958;2022-11-20T06:59:56;17.90;;;16.10;;
3677;SDS011;1855;50.934;6.958;2022-11-20T07:02:23;17.02;;;15.32;;
3677;SDS011;1855;50.934;6.958;2022-11-20T07:04:49;16.08;;;14.57;;
3677;SDS011;1855;50.934;6.958;2022-11-20T07:07:16;15.67;;;14.23;;
3677;SDS011;1855;50.934;6.958;2022-11-20T07:09:43;15.05;;;13.65;;
3677;SDS011;1855;50.934;6.958;2022-11-20T07:12:10;16.38;;;14.88;;
3677;SDS011;1855;50.934;6.958;2022-11-20T07:14:36;15.43;;;13.93;;
3677;SDS011;1855;50.934;6.958;2022-11-20T07:17:04;17.13;;;15.35;;
3677;SDS011;1855;50.934;6.958;2022-11-20T07:19:31;16.45;;;14.82;;
3677;SDS011;1855;50.934;6.958;2022-11-20T07:21:58;17.17;;;15.60;;
3677;SDS011;1855;50.934;6.958;2022-11-20T07:24:24;16.90;;;15.30;;
3677;SDS011;1855;50.934;6.958;2022-11-20T07:26:51;16.10;;;14.60;;
3677;SDS011;1855;50.934;6.958;2022-11-20T07:29:18;17.67;;;16.05;;
3677;SDS011;1855;50.934;6.958;2022-11-20T07:31:45;16.60;;;15.00;;
3677;SDS011;1855;50.934;6.958;2022-11-20T07:34:13;16.80;;;15.10;;
3677;SDS011;1855;50.934;6.958;2022-11-20T07:36:39;16.10;;;14.60;;
3677;SDS011;1855;50.934;6.958;2022-11-20T07:39:06;17.20;;;15.60;;
3677;SDS011;1855;50.934;6.958;2022-11-20T07:41:33;16.70;;;15.10;;
3677;SDS011;1855;50.934;6.958;2022-11-20T07:44:00;18.10;;;16.40;;
3677;SDS011;1855;50.934;6.958;2022-11-20T07:46:26;17.52;;;15.82;;
3677;SDS011;1855;50.934;6.958;2022-11-20T07:48:53;17.35;;;15.65;;
3677;SDS011;1855;50.934;6.958;2022-11-20T07:51:21;17.87;;;16.17;;
3677;SDS011;1855;50.934;6.958;2022-11-20T07:53:50;16.13;;;14.52;;
3677;SDS011;1855;50.934;6.958;2022-11-20T07:56:17;17.60;;;15.90;;
3677;SDS011;1855;50.934;6.958;2022-11-20T07:58:43;16.25;;;14.75;;
3677;SDS011;1855;50.934;6.958;2022-11-20T08:01:10;17.98;;;16.27;;
3677;SDS011;1855;50.934;6.958;2022-11-20T08:03:37;17.55;;;15.85;;
3677;SDS011;1855;50.934;6.958;2022-11-20T08:06:04;16.70;;;15.15;;
3677;SDS011;1855;50.934;6.958;2022-11-20T08:08:32;17.92;;;16.10;;
3677;SDS011;1855;50.934;6.958;2022-11-20T08:10:59;16.98;;;15.43;;
3677;SDS011;1855;50.934;6.958;2022-11-20T08:13:40;17.88;;;16.08;;
3677;SDS011;1855;50.934;6.958;2022-11-20T08:16:32;17.50;;;16.00;;
3677;SDS011;1855;50.934;6.958;2022-11-20T08:18:59;17.42;;;15.73;;
3677;SDS011;1855;50.934;6.958;2022-11-20T08:21:25;17.38;;;15.77;;
3677;SDS011;1855;50.934;6.958;2022-11-20T08:23:53;18.08;;;16.05;;
3677;SDS011;1855;50.934;6.958;2022-11-20T08:26:20;17.38;;;15.68;;
3677;SDS011;1855;50.934;6.958;2022-11-20T08:28:47;17.27;;;15.57;;
3677;SDS011;1855;50.934;6.958;2022-11-20T08:31:14;17.10;;;15.50;;
3677;SDS011;1855;50.934;6.958;2022-11-20T08:33:40;17.88;;;16.17;;
3677;SDS011;1855;50.934;6.958;2022-11-20T08:36:07;17.50;;;15.80;;
3677;SDS011;1855;50.934;6.958;2022-11-20T08:38:34;17.27;;;15.57;;
3677;SDS011;1855;50.934;6.958;2022-11-20T08:41:04;18.67;;;16.92;;
3677;SDS011;1855;50.934;6.958;2022-11-20T08:43:51;17.02;;;15.43;;
3677;SDS011;1855;50.934;6.958;2022-11-20T08:46:19;16.80;;;15.10;;
3677;SDS011;1855;50.934;6.958;2022-11-20T08:48:47;18.20;;;16.50;;
3677;SDS011;1855;50.934;6.958;2022-11-20T08:51:13;19.00;;;17.10;;
3677;SDS011;1855;50.934;6.958;2022-11-20T08:53:41;17.90;;;16.20;;
3677;SDS011;1855;50.934;6.958;2022-11-20T08:56:09;18.43;;;16.63;;
3677;SDS011;1855;50.934;6.958;2022-11-20T08:58:36;19.60;;;17.70;;
3677;SDS011;1855;50.934;6.958;2022-11-20T09:01:03;17.25;;;15.65;;
3677;SDS011;1855;50.934;6.958;2022-11-20T09:03:30;19.25;;;17.35;;
3677;SDS011;1855;50.934;6.958;2022-11-20T09:05:57;19.70;;;17.80;;
3677;SDS011;1855;50.934;6.958;2022-11-20T09:08:25;18.70;;;16.90;;
3677;SDS011;1855;50.934;6.958;2022-11-20T09:10:52;19.00;;;17.10;;
3677;SDS011;1855;50.934;6.958;2022-11-20T09:13:20;19.53;;;17.67;;
3677;SDS011;1855;50.934;6.958;2022-11-20T09:15:51;18.73;;;16.83;;
3677;SDS011;1855;50.934;6.958;2022-11-20T09:18:19;18.35;;;16.65;;
3677;SDS011;1855;50.934;6.958;2022-11-20T09:20:46;18.50;;;16.70;;
3677;SDS011;1855;50.934;6.958;2022-11-20T09:23:12;19.50;;;17.60;;
3677;SDS011;1855;50.934;6.958;2022-11-20T09:25:39;18.47;;;16.77;;
3677;SDS011;1855;50.934;6.958;2022-11-20T09:28:06;18.50;;;16.80;;
3677;SDS011;1855;50.934;6.958;2022-11-20T09:30:34;19.23;;;17.33;;
3677;SDS011;1855;50.934;6.958;2022-11-20T09:33:01;18.77;;;16.92;;
3677;SDS011;1855;50.934;6.958;2022-11-20T09:35:30;18.52;;;16.83;;
3677;SDS011;1855;50.934;6.958;2022-11-20T09:37:57;19.15;;;17.15;;
3677;SDS011;1855;50.934;6.958;2022-11-20T09:40:24;19.27;;;17.38;;
3677;SDS011;1855;50.934;6.958;2022-11-20T09:42:54;18.65;;;16.95;;
3677;SDS011;1855;50.934;6.958;2022-11-20T09:45:28;18.60;;;16.90;;
3677;SDS011;1855;50.934;6.958;2022-11-20T09:48:10;18.40;;;16.60;;
3677;SDS011;1855;50.934;6.958;2022-11-20T09:50:47;17.85;;;16.15;;
3677;SDS011;1855;50.934;6.958;2022-11-20T09:53:22;17.45;;;15.85;;
3677;SDS011;1855;50.934;6.958;2022-11-20T09:55:56;17.92;;;16.23;;
3677;SDS011;1855;50.934;6.958;2022-11-20T09:58:27;18.33;;;16.63;;
3677;SDS011;1855;50.934;6.958;2022-11-20T10:01:00;18.05;;;16.23;;
3677;SDS011;1855;50.934;6.958;2022-11-20T10:03:36;18.88;;;17.08;;
3677;SDS011;1855;50.934;6.958;2022-11-20T10:06:08;19.40;;;17.60;;
3677;SDS011;1855;50.934;6.958;2022-11-20T10:08:42;18.10;;;16.40;;
3677;SDS011;1855;50.934;6.958;2022-11-20T10:11:13;18.42;;;16.70;;
3677;SDS011;1855;50.934;6.958;2022-11-20T10:13:52;19.40;;;17.50;;
3677;SDS011;1855;50.934;6.958;2022-11-20T10:16:33;19.67;;;17.77;;
3677;SDS011;1855;50.934;6.958;2022-11-20T10:19:11;19.27;;;17.38;;
3677;SDS011;1855;50.934;6.958;2022-11-20T10:21:55;18.60;;;16.83;;
3677;SDS011;1855;50.934;6.958;2022-11-20T10:24:35;19.23;;;17.33;;
3677;SDS011;1855;50.934;6.958;2022-11-20T10:27:19;19.38;;;17.48;;
3677;SDS011;1855;50.934;6.958;2022-11-20T10:30:01;20.10;;;18.20;;
3677;SDS011;1855;50.934;6.958;2022-11-20T10:32:36;20.35;;;18.35;;
3677;SDS011;1855;50.934;6.958;2022-11-20T10:35:05;21.00;;;18.90;;
3677;SDS011;1855;50.934;6.958;2022-11-20T10:37:40;20.98;;;18.98;;
3677;SDS011;1855;50.934;6.958;2022-11-20T10:40:16;19.25;;;17.42;;
3677;SDS011;1855;50.934;6.958;2022-11-20T10:42:48;21.23;;;19.13;;
3677;SDS011;1855;50.934;6.958;2022-11-20T10:45:21;20.27;;;18.40;;
3677;SDS011;1855;50.934;6.958;2022-11-20T10:48:04;19.70;;;17.80;;
3677;SDS011;1855;50.934;6.958;2022-11-20T10:50:40;21.35;;;19.25;;
3677;SDS011;1855;50.934;6.958;2022-11-20T10:53:16;20.60;;;18.60;;
3677;SDS011;1855;50.934;6.958;2022-11-20T10:55:54;20.17;;;18.27;;
3677;SDS011;1855;50.934;6.958;2022-11-20T10:58:26;20.70;;;18.65;;
3677;SDS011;1855;50.934;6.958;2022-11-20T11:01:04;20.25;;;18.33;;
3677;SDS011;1855;50.934;6.958;2022-11-20T11:03:32;20.48;;;18.48;;
3677;SDS011;1855;50.934;6.958;2022-11-20T11:06:00;19.58;;;17.67;;
3677;SDS011;1855;50.934;6.958;2022-11-20T11:08:32;19.95;;;17.90;;
3677;SDS011;1855;50.934;6.958;2022-11-20T11:11:07;20.25;;;18.30;;
3677;SDS011;1855;50.934;6.958;2022-11-20T11:13:46;19.38;;;17.48;;
3677;SDS011;1855;50.934;6.958;2022-11-20T11:16:17;18.25;;;16.55;;
3677;SDS011;1855;50.934;6.958;2022-11-20T11:18:49;19.88;;;17.77;;
3677;SDS011;1855;50.934;6.958;2022-11-20T11:21:20;19.92;;;18.10;;
3677;SDS011;1855;50.934;6.958;2022-11-20T11:23:56;19.65;;;17.60;;
3677;SDS011;1855;50.934;6.958;2022-11-20T11:26:24;20.15;;;18.25;;
3677;SDS011;1855;50.934;6.958;2022-11-20T11:28:52;19.88;;;17.98;;
3677;SDS011;1855;50.934;6.958;2022-11-20T11:31:24;19.27;;;17.38;;
3677;SDS011;1855;50.934;6.958;2022-11-20T11:34:02;18.70;;;17.00;;
3677;SDS011;1855;50.934;6.958;2022-11-20T11:36:30;18.60;;;16.80;;
3677;SDS011;1855;50.934;6.958;2022-11-20T11:38:59;19.27;;;17.27;;
3677;SDS011;1855;50.934;6.958;2022-11-20T11:41:28;20.13;;;18.13;;
3677;SDS011;1855;50.934;6.958;2022-11-20T11:44:00;21.17;;;19.17;;
3677;SDS011;1855;50.934;6.958;2022-11-20T11:46:49;19.60;;;17.80;;
3677;SDS011;1855;50.934;6.958;2022-11-20T11:49:21;20.10;;;18.15;;
3677;SDS011;1855;50.934;6.958;2022-11-20T11:51:54;19.98;;;17.98;;
3677;SDS011;1855;50.934;6.958;2022-11-20T11:54:28;20.60;;;18.60;;
3677;SDS011;1855;50.934;6.958;2022-11-20T11:57:00;20.63;;;18.63;;
3677;SDS011;1855;50.934;6.958;2022-11-20T11:59:37;20.10;;;18.20;;
3677;SDS011;1855;50.934;6.958;2022-11-20T12:02:15;18.98;;;16.98;;
3677;SDS011;1855;50.934;6.958;2022-11-20T12:04:57;19.27;;;17.33;;
3677;SDS011;1855;50.934;6.958;2022-11-20T12:07:32;19.05;;;17.25;;
3677;SDS011;1855;50.934;6.958;2022-11-20T12:10:06;19.60;;;17.60;;
3677;SDS011;1855;50.934;6.958;2022-11-20T12:12:42;18.98;;;17.08;;
3677;SDS011;1855;50.934;6.958;2022-11-20T12:15:14;19.05;;;17.05;;
3677;SDS011;1855;50.934;6.958;2022-11-20T12:17:55;19.33;;;17.35;;
3677;SDS011;1855;50.934;6.958;2022-11-20T12:20:24;18.50;;;16.70;;
3677;SDS011;1855;50.934;6.958;2022-11-20T12:22:56;20.77;;;18.67;;
3677;SDS011;1855;50.934;6.958;2022-11-20T12:25:31;19.98;;;17.88;;
3677;SDS011;1855;50.934;6.958;2022-11-20T12:28:12;21.27;;;19.17;;
3677;SDS011;1855;50.934;6.958;2022-11-20T12:30:50;19.25;;;17.35;;
3677;SDS011;1855;50.934;6.958;2022-11-20T12:33:41;18.40;;;16.60;;
3677;SDS011;1855;50.934;6.958;2022-11-20T12:36:23;20.02;;;18.02;;
3677;SDS011;1855;50.934;6.958;2022-11-20T12:38:59;20.40;;;18.40;;
3677;SDS011;1855;50.934;6.958;2022-11-20T12:41:53;19.25;;;17.40;;
3677;SDS011;1855;50.934;6.958;2022-11-20T12:45:10;19.00;;;17.02;;
3677;SDS011;1855;50.934;6.958;2022-11-20T12:48:10;18.83;;;16.83;;
3677;SDS011;1855;50.934;6.958;2022-11-20T12:50:50;18.80;;;17.00;;
3677;SDS011;1855;50.934;6.958;2022-11-20T12:53:33;18.30;;;16.50;;
3677;SDS011;1855;50.934;6.958;2022-11-20T12:56:10;18.08;;;16.27;;
3677;SDS011;1855;50.934;6.958;2022-11-20T12:58:44;19.35;;;17.45;;
3677;SDS011;1855;50.934;6.958;2022-11-20T13:01:23;19.27;;;17.27;;
3677;SDS011;1855;50.934;6.958;2022-11-20T13:04:07;18.55;;;16.83;;
3677;SDS011;1855;50.934;6.958;2022-11-20T13:06:44;18.77;;;16.88;;
3677;SDS011;1855;50.934;6.958;2022-11-20T13:09:14;19.10;;;17.20;;
3677;SDS011;1855;50.934;6.958;2022-11-20T13:11:44;18.70;;;17.00;;
3677;SDS011;1855;50.934;6.958;2022-11-20T13:14:23;19.10;;;17.20;;
3677;SDS011;1855;50.934;6.958;2022-11-20T13:16:57;18.70;;;16.80;;
3677;SDS011;1855;50.934;6.958;2022-11-20T13:19:26;19.23;;;17.33;;
3677;SDS011;1855;50.934;6.958;2022-11-20T13:21:54;18.27;;;16.47;;
3677;SDS011;1855;50.934;6.958;2022-11-20T13:24:24;18.90;;;17.00;;
3677;SDS011;1855;50.934;6.958;2022-11-20T13:26:59;19.02;;;17.08;;
3677;SDS011;1855;50.934;6.958;2022-11-20T13:29:27;18.70;;;16.90;;
3677;SDS011;1855;50.934;6.958;2022-11-20T13:32:01;17.97;;;16.17;;
3677;SDS011;1855;50.934;6.958;2022-11-20T13:34:34;17.88;;;16.08;;
3677;SDS011;1855;50.934;6.958;2022-11-20T13:37:01;18.70;;;16.85;;
3677;SDS011;1855;50.934;6.958;2022-11-20T13:39:31;18.52;;;16.63;;
3677;SDS011;1855;50.934;6.958;2022-11-20T13:42:00;19.40;;;17.50;;
3677;SDS011;1855;50.934;6.958;2022-11-20T13:44:29;18.92;;;17.13;;
3677;SDS011;1855;50.934;6.958;2022-11-20T13:47:03;18.73;;;16.73;;
3677;SDS011;1855;50.934;6.958;2022-11-20T13:49:32;19.10;;;17.30;;
3677;SDS011;1855;50.934;6.958;2022-11-20T13:52:07;18.65;;;16.80;;
3677;SDS011;1855;50.934;6.958;2022-11-20T13:55:02;18.83;;;16.92;;
3677;SDS011;1855;50.934;6.958;2022-11-20T13:57:48;18.02;;;16.30;;
3677;SDS011;1855;50.934;6.958;2022-11-20T14:00:30;17.75;;;15.95;;
3677;SDS011;1855;50.934;6.958;2022-11-20T14:02:59;18.35;;;16.45;;
3677;SDS011;1855;50.934;6.958;2022-11-20T14:05:34;18.50;;;16.70;;
3677;SDS011;1855;50.934;6.958;2022-11-20T14:08:04;18.02;;;16.25;;
3677;SDS011;1855;50.934;6.958;2022-11-20T14:10:39;17.65;;;15.85;;
3677;SDS011;1855;50.934;6.958;2022-11-20T14:13:15;17.35;;;15.65;;
3677;SDS011;1855;50.934;6.958;2022-11-20T14:15:43;17.83;;;15.93;;
3677;SDS011;1855;50.934;6.958;2022-11-20T14:18:11;17.30;;;15.50;;
3677;SDS011;1855;50.934;6.958;2022-11-20T14:20:39;18.05;;;16.30;;
3677;SDS011;1855;50.934;6.958;2022-11-20T14:23:07;17.00;;;15.32;;
3677;SDS011;1855;50.934;6.958;2022-11-20T14:25:36;17.60;;;15.90;;
3677;SDS011;1855;50.934;6.958;2022-11-20T14:28:10;17.52;;;15.73;;
3677;SDS011;1855;50.934;6.958;2022-11-20T14:30:45;17.73;;;16.02;;
3677;SDS011;1855;50.934;6.958;2022-11-20T14:33:14;17.15;;;15.45;;
3677;SDS011;1855;50.934;6.958;2022-11-20T14:35:43;17.50;;;15.70;;
3677;SDS011;1855;50.934;6.958;2022-11-20T14:38:12;17.80;;;16.08;;
3677;SDS011;1855;50.934;6.958;2022-11-20T14:40:42;16.90;;;15.30;;
3677;SDS011;1855;50.934;6.958;2022-11-20T14:43:16;17.10;;;15.40;;
3677;SDS011;1855;50.934;6.958;2022-11-20T14:45:45;17.45;;;15.68;;
3677;SDS011;1855;50.934;6.958;2022-11-20T14:48:15;17.55;;;15.85;;
3677;SDS011;1855;50.934;6.958;2022-11-20T14:50:42;17.13;;;15.43;;
3677;SDS011;1855;50.934;6.958;2022-11-20T14:53:09;16.10;;;14.50;;
3677;SDS011;1855;50.934;6.958;2022-11-20T14:55:36;16.45;;;14.85;;
3677;SDS011;1855;50.934;6.958;2022-11-20T14:58:06;16.85;;;15.25;;
3677;SDS011;1855;50.934;6.958;2022-11-20T15:00:53;15.73;;;14.13;;
3677;SDS011;1855;50.934;6.958;2022-11-20T15:03:21;16.20;;;14.60;;
3677;SDS011;1855;50.934;6.958;2022-11-20T15:05:48;17.20;;;15.60;;